createdAt,value
2018-12-22T00:00:27.614Z,6.62
2018-12-22T00:01:01.009Z,6.62
2018-12-22T00:01:34.443Z,6.62
2018-12-22T00:02:07.795Z,6.62
2018-12-22T00:02:41.132Z,6.62
2018-12-22T00:03:14.476Z,6.62
2018-12-22T00:03:47.914Z,6.62
2018-12-22T00:04:21.365Z,6.69
2018-12-22T00:04:54.699Z,6.69
2018-12-22T00:05:28.039Z,6.69
2018-12-22T00:06:01.330Z,6.75
2018-12-22T00:06:34.754Z,6.75
2018-12-22T00:07:08.132Z,6.75
2018-12-22T00:07:41.479Z,6.81
2018-12-22T00:08:14.784Z,6.81
2018-12-22T00:08:48.093Z,6.81
2018-12-22T00:09:21.411Z,6.81
2018-12-22T00:09:54.733Z,6.81
2018-12-22T00:10:28.089Z,6.87
2018-12-22T00:11:01.389Z,6.87
2018-12-22T00:11:34.686Z,6.87
2018-12-22T00:12:07.975Z,6.87
2018-12-22T00:12:41.861Z,6.87
2018-12-22T00:13:15.178Z,6.87
2018-12-22T00:13:48.537Z,6.87
2018-12-22T00:14:21.866Z,6.87
2018-12-22T00:14:55.178Z,6.87
2018-12-22T00:15:28.537Z,6.87
2018-12-22T00:16:01.879Z,6.87
2018-12-22T00:16:35.207Z,6.94
2018-12-22T00:17:08.559Z,6.94
2018-12-22T00:17:41.902Z,6.94
2018-12-22T00:18:15.238Z,6.94
2018-12-22T00:18:48.595Z,6.94
2018-12-22T00:19:21.892Z,6.94
2018-12-22T00:19:55.195Z,7.00
2018-12-22T00:20:28.518Z,7.00
2018-12-22T00:21:01.825Z,7.00
2018-12-22T00:21:35.164Z,7.00
2018-12-22T00:22:08.474Z,7.00
2018-12-22T00:22:41.766Z,7.06
2018-12-22T00:23:15.063Z,7.06
2018-12-22T00:23:48.373Z,7.06
2018-12-22T00:24:21.712Z,7.06
2018-12-22T00:24:55.077Z,7.06
2018-12-22T00:25:28.418Z,7.06
2018-12-22T00:26:01.739Z,7.06
2018-12-22T00:26:35.056Z,7.06
2018-12-22T00:27:09.474Z,7.06
2018-12-22T00:27:42.819Z,7.12
2018-12-22T00:28:22.199Z,7.12
2018-12-22T00:28:51.437Z,7.12
2018-12-22T00:29:24.761Z,7.12
2018-12-22T00:29:58.090Z,7.12
2018-12-22T00:30:31.415Z,7.19
2018-12-22T00:31:04.737Z,7.19
2018-12-22T00:31:38.127Z,7.19
2018-12-22T00:32:11.412Z,7.19
2018-12-22T00:32:44.727Z,7.19
2018-12-22T00:33:18.088Z,7.19
2018-12-22T00:33:51.413Z,7.19
2018-12-22T00:34:24.741Z,7.19
2018-12-22T00:34:58.056Z,7.19
2018-12-22T00:35:31.359Z,7.25
2018-12-22T00:36:04.717Z,7.25
2018-12-22T00:36:38.107Z,7.25
2018-12-22T00:37:11.441Z,7.25
2018-12-22T00:37:44.758Z,7.25
2018-12-22T00:38:18.119Z,7.25
2018-12-22T00:38:51.384Z,7.25
2018-12-22T00:39:24.720Z,7.25
2018-12-22T00:39:58.110Z,7.25
2018-12-22T00:40:31.485Z,7.25
2018-12-22T00:41:05.264Z,7.25
2018-12-22T00:41:38.612Z,7.31
2018-12-22T00:42:11.958Z,7.31
2018-12-22T00:42:45.275Z,7.31
2018-12-22T00:43:18.582Z,7.31
2018-12-22T00:43:51.878Z,7.31
2018-12-22T00:44:25.363Z,7.31
2018-12-22T00:44:58.971Z,7.31
2018-12-22T00:45:32.274Z,7.31
2018-12-22T00:46:05.656Z,7.31
2018-12-22T00:46:38.984Z,7.31
2018-12-22T00:47:12.292Z,7.31
2018-12-22T00:47:45.595Z,7.31
2018-12-22T00:48:18.911Z,7.31
2018-12-22T00:48:52.347Z,7.31
2018-12-22T00:49:25.703Z,7.31
2018-12-22T00:49:59.165Z,7.31
2018-12-22T00:50:32.526Z,7.31
2018-12-22T00:51:05.869Z,7.31
2018-12-22T00:51:39.204Z,7.31
2018-12-22T00:52:12.501Z,7.25
2018-12-22T00:52:45.807Z,7.25
2018-12-22T00:53:19.109Z,7.25
2018-12-22T00:53:52.447Z,7.25
2018-12-22T00:54:25.838Z,7.25
2018-12-22T00:54:59.196Z,7.25
2018-12-22T00:55:32.499Z,7.19
2018-12-22T00:56:05.820Z,7.19
2018-12-22T00:56:39.130Z,7.19
2018-12-22T00:57:12.450Z,7.19
2018-12-22T00:57:45.817Z,7.19
2018-12-22T00:58:19.136Z,7.19
2018-12-22T00:58:52.579Z,7.19
2018-12-22T00:59:26.127Z,7.19
2018-12-22T00:59:59.456Z,7.19
2018-12-22T01:00:32.794Z,7.19
2018-12-22T01:01:06.120Z,7.19
2018-12-22T01:01:39.418Z,7.19
2018-12-22T01:02:12.722Z,7.19
2018-12-22T01:02:46.028Z,7.19
2018-12-22T01:03:19.360Z,7.12
2018-12-22T01:03:52.688Z,7.12
2018-12-22T01:04:26.047Z,7.12
2018-12-22T01:04:59.346Z,7.12
2018-12-22T01:05:32.922Z,7.12
2018-12-22T01:06:06.246Z,7.12
2018-12-22T01:06:39.542Z,7.12
2018-12-22T01:07:12.982Z,7.12
2018-12-22T01:07:46.293Z,7.12
2018-12-22T01:08:19.588Z,7.12
2018-12-22T01:08:52.897Z,7.12
2018-12-22T01:09:26.225Z,7.12
2018-12-22T01:09:59.561Z,7.12
2018-12-22T01:10:32.888Z,7.12
2018-12-22T01:11:06.196Z,7.12
2018-12-22T01:11:39.986Z,7.12
2018-12-22T01:12:13.409Z,7.12
2018-12-22T01:12:46.757Z,7.12
2018-12-22T01:13:20.105Z,7.12
2018-12-22T01:13:53.546Z,7.12
2018-12-22T01:14:26.853Z,7.12
2018-12-22T01:15:00.165Z,7.12
2018-12-22T01:15:33.643Z,7.12
2018-12-22T01:16:07.092Z,7.12
2018-12-22T01:16:40.405Z,7.12
2018-12-22T01:17:13.706Z,7.12
2018-12-22T01:17:47.007Z,7.12
2018-12-22T01:18:20.353Z,7.12
2018-12-22T01:18:53.679Z,7.12
2018-12-22T01:19:27.017Z,7.12
2018-12-22T01:20:00.350Z,7.19
2018-12-22T01:20:33.802Z,7.19
2018-12-22T01:21:07.113Z,7.19
2018-12-22T01:21:40.419Z,7.19
2018-12-22T01:22:13.867Z,7.19
2018-12-22T01:22:47.169Z,7.19
2018-12-22T01:23:20.513Z,7.25
2018-12-22T01:23:53.843Z,7.25
2018-12-22T01:24:27.165Z,7.25
2018-12-22T01:25:00.460Z,7.25
2018-12-22T01:25:33.743Z,7.25
2018-12-22T01:26:08.271Z,7.25
2018-12-22T01:26:41.567Z,7.25
2018-12-22T01:27:14.884Z,7.25
2018-12-22T01:27:48.201Z,7.25
2018-12-22T01:28:21.515Z,7.25
2018-12-22T01:28:54.827Z,7.25
2018-12-22T01:29:28.121Z,7.31
2018-12-22T01:30:01.421Z,7.31
2018-12-22T01:30:34.749Z,7.31
2018-12-22T01:31:08.091Z,7.31
2018-12-22T01:31:41.518Z,7.31
2018-12-22T01:32:14.859Z,7.37
2018-12-22T01:32:48.235Z,7.37
2018-12-22T01:33:21.539Z,7.37
2018-12-22T01:33:54.840Z,7.37
2018-12-22T01:34:28.163Z,7.37
2018-12-22T01:35:01.510Z,7.37
2018-12-22T01:35:34.835Z,7.37
2018-12-22T01:36:08.188Z,7.37
2018-12-22T01:36:41.492Z,7.37
2018-12-22T01:37:14.796Z,7.44
2018-12-22T01:37:48.124Z,7.44
2018-12-22T01:38:21.452Z,7.44
2018-12-22T01:38:54.801Z,7.44
2018-12-22T01:39:28.083Z,7.44
2018-12-22T01:40:01.404Z,7.44
2018-12-22T01:40:34.736Z,7.44
2018-12-22T01:41:08.051Z,7.50
2018-12-22T01:41:41.405Z,7.44
2018-12-22T01:42:14.700Z,7.44
2018-12-22T01:42:48.027Z,7.50
2018-12-22T01:43:21.333Z,7.50
2018-12-22T01:43:54.648Z,7.50
2018-12-22T01:44:27.963Z,7.50
2018-12-22T01:45:01.570Z,7.56
2018-12-22T01:45:34.892Z,7.50
2018-12-22T01:46:08.232Z,7.56
2018-12-22T01:46:41.635Z,7.56
2018-12-22T01:47:15.092Z,7.56
2018-12-22T01:47:48.430Z,7.56
2018-12-22T01:48:21.778Z,7.56
2018-12-22T01:48:55.089Z,7.56
2018-12-22T01:49:28.420Z,7.56
2018-12-22T01:50:01.850Z,7.62
2018-12-22T01:50:35.158Z,7.62
2018-12-22T01:51:08.524Z,7.62
2018-12-22T01:51:41.927Z,7.69
2018-12-22T01:52:15.380Z,7.69
2018-12-22T01:52:48.712Z,7.69
2018-12-22T01:53:22.092Z,7.69
2018-12-22T01:53:55.436Z,7.69
2018-12-22T01:54:28.756Z,7.69
2018-12-22T01:55:02.317Z,7.75
2018-12-22T01:55:35.662Z,7.75
2018-12-22T01:56:09.000Z,7.75
2018-12-22T01:56:42.310Z,7.75
2018-12-22T01:57:15.674Z,7.75
2018-12-22T01:57:49.090Z,7.75
2018-12-22T01:58:22.402Z,7.81
2018-12-22T01:58:55.723Z,7.81
2018-12-22T01:59:29.047Z,7.81
2018-12-22T02:00:02.512Z,7.81
2018-12-22T02:00:35.946Z,7.81
2018-12-22T02:01:09.385Z,7.81
2018-12-22T02:01:42.728Z,7.87
2018-12-22T02:02:16.058Z,7.87
2018-12-22T02:02:49.361Z,7.87
2018-12-22T02:03:22.683Z,7.87
2018-12-22T02:03:56.031Z,7.87
2018-12-22T02:04:29.315Z,7.87
2018-12-22T02:05:02.786Z,7.87
2018-12-22T02:05:36.250Z,7.87
2018-12-22T02:06:09.552Z,7.87
2018-12-22T02:06:42.862Z,7.94
2018-12-22T02:07:16.188Z,7.94
2018-12-22T02:07:49.563Z,7.94
2018-12-22T02:08:22.951Z,7.94
2018-12-22T02:08:56.242Z,7.94
2018-12-22T02:09:29.558Z,7.94
2018-12-22T02:10:03.172Z,7.94
2018-12-22T02:10:36.605Z,7.94
2018-12-22T02:11:09.906Z,7.87
2018-12-22T02:11:43.321Z,7.94
2018-12-22T02:12:16.616Z,7.94
2018-12-22T02:12:50.019Z,7.87
2018-12-22T02:13:23.316Z,7.87
2018-12-22T02:13:56.650Z,7.87
2018-12-22T02:14:29.990Z,7.87
2018-12-22T02:15:03.464Z,7.87
2018-12-22T02:15:36.806Z,7.87
2018-12-22T02:16:10.103Z,7.81
2018-12-22T02:16:43.421Z,7.81
2018-12-22T02:17:16.749Z,7.81
2018-12-22T02:17:50.061Z,7.75
2018-12-22T02:18:23.527Z,7.75
2018-12-22T02:18:56.890Z,7.75
2018-12-22T02:19:30.206Z,7.69
2018-12-22T02:20:04.447Z,7.69
2018-12-22T02:20:37.766Z,7.69
2018-12-22T02:21:11.304Z,7.62
2018-12-22T02:21:44.718Z,7.62
2018-12-22T02:22:18.042Z,7.62
2018-12-22T02:22:51.330Z,7.56
2018-12-22T02:23:24.612Z,7.56
2018-12-22T02:23:57.894Z,7.56
2018-12-22T02:24:31.217Z,7.50
2018-12-22T02:25:04.811Z,7.50
2018-12-22T02:25:38.164Z,7.50
2018-12-22T02:26:11.478Z,7.44
2018-12-22T02:26:44.778Z,7.44
2018-12-22T02:27:18.098Z,7.44
2018-12-22T02:27:51.379Z,7.44
2018-12-22T02:28:24.688Z,7.37
2018-12-22T02:28:58.029Z,7.37
2018-12-22T02:29:31.312Z,7.37
2018-12-22T02:30:05.408Z,7.37
2018-12-22T02:30:39.756Z,7.37
2018-12-22T02:31:13.054Z,7.31
2018-12-22T02:31:46.375Z,7.31
2018-12-22T02:32:19.676Z,7.31
2018-12-22T02:32:53.006Z,7.31
2018-12-22T02:33:26.301Z,7.31
2018-12-22T02:33:59.572Z,7.31
2018-12-22T02:34:32.847Z,7.31
2018-12-22T02:35:06.379Z,7.31
2018-12-22T02:35:39.823Z,7.31
2018-12-22T02:36:13.155Z,7.31
2018-12-22T02:36:46.578Z,7.25
2018-12-22T02:37:19.864Z,7.25
2018-12-22T02:37:53.289Z,7.25
2018-12-22T02:38:26.599Z,7.25
2018-12-22T02:38:59.918Z,7.25
2018-12-22T02:39:33.281Z,7.25
2018-12-22T02:40:08.167Z,7.25
2018-12-22T02:40:41.485Z,7.25
2018-12-22T02:41:14.792Z,7.25
2018-12-22T02:41:48.096Z,7.25
2018-12-22T02:42:21.437Z,7.25
2018-12-22T02:42:54.754Z,7.25
2018-12-22T02:43:28.105Z,7.25
2018-12-22T02:44:01.395Z,7.25
2018-12-22T02:44:34.708Z,7.25
2018-12-22T02:45:08.175Z,7.19
2018-12-22T02:45:41.497Z,7.25
2018-12-22T02:46:14.789Z,7.19
2018-12-22T02:46:48.124Z,7.25
2018-12-22T02:47:21.475Z,7.19
2018-12-22T02:47:54.816Z,7.19
2018-12-22T02:48:28.133Z,7.19
2018-12-22T02:49:01.452Z,7.19
2018-12-22T02:49:34.779Z,7.19
2018-12-22T02:50:09.739Z,7.19
2018-12-22T02:50:43.149Z,7.19
2018-12-22T02:51:16.432Z,7.19
2018-12-22T02:51:49.753Z,7.19
2018-12-22T02:52:23.058Z,7.19
2018-12-22T02:52:56.364Z,7.19
2018-12-22T02:53:29.665Z,7.19
2018-12-22T02:54:03.102Z,7.12
2018-12-22T02:54:36.377Z,7.12
2018-12-22T02:55:09.703Z,7.12
2018-12-22T02:55:43.079Z,7.12
2018-12-22T02:56:16.511Z,7.12
2018-12-22T02:56:49.926Z,7.12
2018-12-22T02:57:23.230Z,7.12
2018-12-22T02:57:56.548Z,7.12
2018-12-22T02:58:29.900Z,7.12
2018-12-22T02:59:06.368Z,7.12
2018-12-22T02:59:38.533Z,7.12
2018-12-22T03:00:11.882Z,7.12
2018-12-22T03:00:45.244Z,7.12
2018-12-22T03:01:18.569Z,7.12
2018-12-22T03:01:51.870Z,7.12
2018-12-22T03:02:25.299Z,7.12
2018-12-22T03:02:58.601Z,7.12
2018-12-22T03:03:31.912Z,7.12
2018-12-22T03:04:05.247Z,7.12
2018-12-22T03:04:38.590Z,7.12
2018-12-22T03:05:11.957Z,7.12
2018-12-22T03:05:45.297Z,7.12
2018-12-22T03:06:18.613Z,7.12
2018-12-22T03:06:51.899Z,7.06
2018-12-22T03:07:25.221Z,7.06
2018-12-22T03:07:59.458Z,7.06
2018-12-22T03:08:33.155Z,7.06
2018-12-22T03:09:06.855Z,7.06
2018-12-22T03:10:26.682Z,7.06
2018-12-22T03:11:00.054Z,7.06
2018-12-22T03:11:33.514Z,7.06
2018-12-22T03:12:06.866Z,7.06
2018-12-22T03:12:40.198Z,7.06
2018-12-22T03:13:13.518Z,7.06
2018-12-22T03:13:46.864Z,7.06
2018-12-22T03:14:20.198Z,7.06
2018-12-22T03:14:53.485Z,7.06
2018-12-22T03:15:26.821Z,7.06
2018-12-22T03:16:00.143Z,7.06
2018-12-22T03:16:33.490Z,7.06
2018-12-22T03:17:06.849Z,7.06
2018-12-22T03:17:40.173Z,7.06
2018-12-22T03:18:13.455Z,7.06
2018-12-22T03:18:46.743Z,7.06
2018-12-22T03:19:20.071Z,7.06
2018-12-22T03:19:53.388Z,7.00
2018-12-22T03:20:26.686Z,7.00
2018-12-22T03:20:59.997Z,7.00
2018-12-22T03:21:33.318Z,7.00
2018-12-22T03:22:06.634Z,7.00
2018-12-22T03:22:39.950Z,7.00
2018-12-22T03:23:13.385Z,7.00
2018-12-22T03:23:47.828Z,7.00
2018-12-22T03:24:21.167Z,7.00
2018-12-22T03:24:54.463Z,7.00
2018-12-22T03:25:27.743Z,7.00
2018-12-22T03:26:01.099Z,7.00
2018-12-22T03:26:34.424Z,7.00
2018-12-22T03:27:07.750Z,7.00
2018-12-22T03:27:41.076Z,7.00
2018-12-22T03:28:14.370Z,7.00
2018-12-22T03:28:47.739Z,7.00
2018-12-22T03:29:21.044Z,7.00
2018-12-22T03:29:54.420Z,7.00
2018-12-22T03:30:27.765Z,7.00
2018-12-22T03:31:01.118Z,7.00
2018-12-22T03:31:34.443Z,7.00
2018-12-22T03:32:07.752Z,7.00
2018-12-22T03:32:41.347Z,7.00
2018-12-22T03:33:14.943Z,7.00
2018-12-22T03:33:48.238Z,7.00
2018-12-22T03:34:21.552Z,7.00
2018-12-22T03:34:54.899Z,7.00
2018-12-22T03:35:28.230Z,7.00
2018-12-22T03:36:01.566Z,7.06
2018-12-22T03:36:34.877Z,7.06
2018-12-22T03:37:08.233Z,7.12
2018-12-22T03:37:41.679Z,7.12
2018-12-22T03:38:14.985Z,7.12
2018-12-22T03:38:48.310Z,7.12
2018-12-22T03:39:21.663Z,7.12
2018-12-22T03:39:55.286Z,7.19
2018-12-22T03:40:28.824Z,7.19
2018-12-22T03:41:02.429Z,7.19
2018-12-22T03:41:35.876Z,7.19
2018-12-22T03:42:09.207Z,7.19
2018-12-22T03:42:42.514Z,7.19
2018-12-22T03:43:15.979Z,7.19
2018-12-22T03:43:49.274Z,7.19
2018-12-22T03:44:22.622Z,7.19
2018-12-22T03:44:55.930Z,7.19
2018-12-22T03:45:29.375Z,7.19
2018-12-22T03:46:02.741Z,7.19
2018-12-22T03:46:36.240Z,7.19
2018-12-22T03:47:10.758Z,7.19
2018-12-22T03:47:44.068Z,7.25
2018-12-22T03:48:17.594Z,7.25
2018-12-22T03:48:50.890Z,7.25
2018-12-22T03:49:24.222Z,7.25
2018-12-22T03:49:57.668Z,7.25
2018-12-22T03:50:30.974Z,7.19
2018-12-22T03:51:04.317Z,7.19
2018-12-22T03:51:37.660Z,7.19
2018-12-22T03:52:10.980Z,7.19
2018-12-22T03:52:44.297Z,7.19
2018-12-22T03:53:17.688Z,7.19
2018-12-22T03:53:52.108Z,7.19
2018-12-22T03:54:25.394Z,7.19
2018-12-22T03:54:58.698Z,7.19
2018-12-22T03:55:32.066Z,7.19
2018-12-22T03:56:05.532Z,7.19
2018-12-22T03:56:38.919Z,7.19
2018-12-22T03:57:12.270Z,7.19
2018-12-22T03:57:45.586Z,7.19
2018-12-22T03:58:18.900Z,7.19
2018-12-22T03:58:52.194Z,7.19
2018-12-22T03:59:25.515Z,7.19
2018-12-22T03:59:58.836Z,7.19
2018-12-22T04:00:32.164Z,7.19
2018-12-22T04:01:05.476Z,7.19
2018-12-22T04:01:38.868Z,7.19
2018-12-22T04:02:12.177Z,7.12
2018-12-22T04:02:45.483Z,7.12
2018-12-22T04:03:18.800Z,7.12
2018-12-22T04:03:52.245Z,7.12
2018-12-22T04:04:25.611Z,7.12
2018-12-22T04:05:07.818Z,7.12
2018-12-22T04:05:41.107Z,7.12
2018-12-22T04:06:14.474Z,7.12
2018-12-22T04:06:47.838Z,7.12
2018-12-22T04:07:21.157Z,7.12
2018-12-22T04:07:54.498Z,7.12
2018-12-22T04:08:27.935Z,7.12
2018-12-22T04:09:01.254Z,7.12
2018-12-22T04:09:34.575Z,7.06
2018-12-22T04:10:09.150Z,7.06
2018-12-22T04:10:42.510Z,7.06
2018-12-22T04:11:15.826Z,7.06
2018-12-22T04:11:49.144Z,7.06
2018-12-22T04:12:22.569Z,7.06
2018-12-22T04:12:55.898Z,7.06
2018-12-22T04:13:30.324Z,7.06
2018-12-22T04:14:03.872Z,7.06
2018-12-22T04:14:37.282Z,7.06
2018-12-22T04:15:10.678Z,7.06
2018-12-22T04:15:44.704Z,7.06
2018-12-22T04:16:18.153Z,7.06
2018-12-22T04:16:51.497Z,7.06
2018-12-22T04:17:24.822Z,7.06
2018-12-22T04:17:58.155Z,7.06
2018-12-22T04:18:31.446Z,7.06
2018-12-22T04:19:04.744Z,7.06
2018-12-22T04:19:38.047Z,7.06
2018-12-22T04:20:11.382Z,7.06
2018-12-22T04:20:44.746Z,7.06
2018-12-22T04:21:18.082Z,7.06
2018-12-22T04:21:51.547Z,7.06
2018-12-22T04:22:24.929Z,7.06
2018-12-22T04:22:58.291Z,7.06
2018-12-22T04:23:31.573Z,7.06
2018-12-22T04:24:04.958Z,7.06
2018-12-22T04:24:38.261Z,7.06
2018-12-22T04:25:11.590Z,7.06
2018-12-22T04:25:44.898Z,7.06
2018-12-22T04:26:18.237Z,7.06
2018-12-22T04:26:51.603Z,7.06
2018-12-22T04:27:24.933Z,7.06
2018-12-22T04:27:58.345Z,7.06
2018-12-22T04:28:32.197Z,7.00
2018-12-22T04:29:05.555Z,7.00
2018-12-22T04:29:38.877Z,7.00
2018-12-22T04:30:12.184Z,7.00
2018-12-22T04:30:46.122Z,7.00
2018-12-22T04:31:19.449Z,7.06
2018-12-22T04:31:52.782Z,7.00
2018-12-22T04:32:26.119Z,7.00
2018-12-22T04:32:59.435Z,7.00
2018-12-22T04:33:32.894Z,7.00
2018-12-22T04:34:06.208Z,7.00
2018-12-22T04:34:39.517Z,7.00
2018-12-22T04:35:12.890Z,7.00
2018-12-22T04:35:46.295Z,7.00
2018-12-22T04:36:19.610Z,7.00
2018-12-22T04:36:53.048Z,7.00
2018-12-22T04:37:26.398Z,7.00
2018-12-22T04:37:59.717Z,7.00
2018-12-22T04:38:33.047Z,7.00
2018-12-22T04:39:07.444Z,7.00
2018-12-22T04:39:40.757Z,7.00
2018-12-22T04:40:14.043Z,7.00
2018-12-22T04:40:47.395Z,7.00
2018-12-22T04:41:21.396Z,7.00
2018-12-22T04:41:54.893Z,7.00
2018-12-22T04:42:28.213Z,7.00
2018-12-22T04:43:01.641Z,7.00
2018-12-22T04:43:35.005Z,7.00
2018-12-22T04:44:08.307Z,7.00
2018-12-22T04:44:41.843Z,7.00
2018-12-22T04:45:15.157Z,7.06
2018-12-22T04:45:48.518Z,7.06
2018-12-22T04:46:21.853Z,7.00
2018-12-22T04:46:55.265Z,7.00
2018-12-22T04:47:28.641Z,7.00
2018-12-22T04:48:02.127Z,7.06
2018-12-22T04:48:35.442Z,7.06
2018-12-22T04:49:08.763Z,7.06
2018-12-22T04:49:42.119Z,7.06
2018-12-22T04:50:15.515Z,7.06
2018-12-22T04:50:48.817Z,7.00
2018-12-22T04:51:22.119Z,7.06
2018-12-22T04:51:56.467Z,7.06
2018-12-22T04:52:29.786Z,7.06
2018-12-22T04:53:03.130Z,7.06
2018-12-22T04:53:36.446Z,7.06
2018-12-22T04:54:09.744Z,7.06
2018-12-22T04:54:43.035Z,7.06
2018-12-22T04:55:17.465Z,7.06
2018-12-22T04:55:50.855Z,7.06
2018-12-22T04:56:24.215Z,7.06
2018-12-22T04:56:57.535Z,7.06
2018-12-22T04:57:30.862Z,7.06
2018-12-22T04:58:04.177Z,7.06
2018-12-22T04:58:37.801Z,7.06
2018-12-22T04:59:11.145Z,7.06
2018-12-22T04:59:44.455Z,7.06
2018-12-22T05:00:17.984Z,7.06
2018-12-22T05:01:53.047Z,7.06
2018-12-22T05:02:26.349Z,7.06
2018-12-22T05:02:59.663Z,7.06
2018-12-22T05:03:32.978Z,7.00
2018-12-22T05:04:06.307Z,7.00
2018-12-22T05:04:39.639Z,7.00
2018-12-22T05:05:13.009Z,7.00
2018-12-22T05:05:46.376Z,7.00
2018-12-22T05:06:19.697Z,7.00
2018-12-22T05:06:54.054Z,7.00
2018-12-22T05:07:27.352Z,7.00
2018-12-22T05:08:00.665Z,7.00
2018-12-22T05:08:33.990Z,7.00
2018-12-22T05:09:07.502Z,7.00
2018-12-22T05:09:40.823Z,7.00
2018-12-22T05:10:14.197Z,7.00
2018-12-22T05:10:47.587Z,7.00
2018-12-22T05:11:20.911Z,7.00
2018-12-22T05:11:54.205Z,7.00
2018-12-22T05:12:27.523Z,7.06
2018-12-22T05:13:00.859Z,7.00
2018-12-22T05:13:34.138Z,7.06
2018-12-22T05:14:07.484Z,7.06
2018-12-22T05:14:40.779Z,7.06
2018-12-22T05:15:14.091Z,7.06
2018-12-22T05:15:47.381Z,7.06
2018-12-22T05:16:20.670Z,7.06
2018-12-22T05:16:54.009Z,7.06
2018-12-22T05:17:27.329Z,7.06
2018-12-22T05:18:00.673Z,7.06
2018-12-22T05:18:33.967Z,7.06
2018-12-22T05:19:07.398Z,7.06
2018-12-22T05:19:40.687Z,7.06
2018-12-22T05:20:15.482Z,7.06
2018-12-22T05:20:49.025Z,7.06
2018-12-22T05:21:22.337Z,7.06
2018-12-22T05:21:55.674Z,7.06
2018-12-22T05:22:29.008Z,7.06
2018-12-22T05:23:02.309Z,7.06
2018-12-22T05:23:35.607Z,7.06
2018-12-22T05:24:08.915Z,7.06
2018-12-22T05:24:42.227Z,7.06
2018-12-22T05:25:15.544Z,7.06
2018-12-22T05:25:48.843Z,7.06
2018-12-22T05:26:22.165Z,7.06
2018-12-22T05:26:55.471Z,7.06
2018-12-22T05:27:28.767Z,7.06
2018-12-22T05:28:02.095Z,7.06
2018-12-22T05:28:35.405Z,7.06
2018-12-22T05:29:08.697Z,7.06
2018-12-22T05:29:41.999Z,7.06
2018-12-22T05:30:15.332Z,7.06
2018-12-22T05:30:48.685Z,7.06
2018-12-22T05:31:22.015Z,7.06
2018-12-22T05:31:55.350Z,7.12
2018-12-22T05:32:28.663Z,7.12
2018-12-22T05:33:01.949Z,7.12
2018-12-22T05:33:35.257Z,7.12
2018-12-22T05:34:08.565Z,7.12
2018-12-22T05:34:41.889Z,7.12
2018-12-22T05:35:23.049Z,7.12
2018-12-22T05:35:56.347Z,7.12
2018-12-22T05:36:29.683Z,7.12
2018-12-22T05:37:03.004Z,7.12
2018-12-22T05:37:36.335Z,7.12
2018-12-22T05:38:09.655Z,7.12
2018-12-22T05:38:42.953Z,7.12
2018-12-22T05:39:16.278Z,7.12
2018-12-22T05:39:49.609Z,7.12
2018-12-22T05:40:22.967Z,7.19
2018-12-22T05:40:56.266Z,7.12
2018-12-22T05:41:29.565Z,7.19
2018-12-22T05:42:02.873Z,7.12
2018-12-22T05:42:36.223Z,7.19
2018-12-22T05:43:09.572Z,7.19
2018-12-22T05:43:42.889Z,7.19
2018-12-22T05:44:16.185Z,7.19
2018-12-22T05:44:49.509Z,7.19
2018-12-22T05:45:22.833Z,7.19
2018-12-22T05:45:56.199Z,7.19
2018-12-22T05:46:29.511Z,7.19
2018-12-22T05:47:02.847Z,7.19
2018-12-22T05:47:36.165Z,7.19
2018-12-22T05:48:09.488Z,7.19
2018-12-22T05:48:42.805Z,7.19
2018-12-22T05:49:16.115Z,7.19
2018-12-22T05:49:49.429Z,7.19
2018-12-22T05:50:28.827Z,7.19
2018-12-22T05:51:02.255Z,7.19
2018-12-22T05:51:35.578Z,7.19
2018-12-22T05:52:08.864Z,7.19
2018-12-22T05:52:42.187Z,7.19
2018-12-22T05:53:15.489Z,7.19
2018-12-22T05:53:48.841Z,7.19
2018-12-22T05:54:22.129Z,7.19
2018-12-22T05:54:55.447Z,7.19
2018-12-22T05:55:28.751Z,7.19
2018-12-22T05:56:02.037Z,7.19
2018-12-22T05:56:35.341Z,7.19
2018-12-22T05:57:08.647Z,7.19
2018-12-22T05:57:41.998Z,7.19
2018-12-22T05:58:15.291Z,7.19
2018-12-22T05:58:48.597Z,7.25
2018-12-22T05:59:21.878Z,7.19
2018-12-22T06:00:00.329Z,7.25
2018-12-22T06:00:30.667Z,7.25
2018-12-22T06:01:03.999Z,7.25
2018-12-22T06:01:37.304Z,7.25
2018-12-22T06:02:10.689Z,7.25
2018-12-22T06:02:44.050Z,7.25
2018-12-22T06:03:17.458Z,7.25
2018-12-22T06:03:50.783Z,7.25
2018-12-22T06:04:24.126Z,7.25
2018-12-22T06:04:57.454Z,7.25
2018-12-22T06:05:30.799Z,7.25
2018-12-22T06:06:04.113Z,7.25
2018-12-22T06:06:37.527Z,7.25
2018-12-22T06:07:10.835Z,7.25
2018-12-22T06:07:44.157Z,7.25
2018-12-22T06:08:17.462Z,7.25
2018-12-22T06:08:50.761Z,7.25
2018-12-22T06:09:24.077Z,7.25
2018-12-22T06:09:57.402Z,7.25
2018-12-22T06:10:30.715Z,7.25
2018-12-22T06:11:03.999Z,7.25
2018-12-22T06:11:37.306Z,7.25
2018-12-22T06:12:10.665Z,7.25
2018-12-22T06:12:43.997Z,7.25
2018-12-22T06:13:17.363Z,7.25
2018-12-22T06:13:50.694Z,7.25
2018-12-22T06:14:24.033Z,7.25
2018-12-22T06:14:57.321Z,7.25
2018-12-22T06:15:30.646Z,7.25
2018-12-22T06:16:03.981Z,7.25
2018-12-22T06:16:37.345Z,7.25
2018-12-22T06:17:10.670Z,7.25
2018-12-22T06:17:44.006Z,7.25
2018-12-22T06:18:17.328Z,7.25
2018-12-22T06:18:50.628Z,7.25
2018-12-22T06:19:23.918Z,7.25
2018-12-22T06:19:57.270Z,7.25
2018-12-22T06:20:30.606Z,7.25
2018-12-22T06:21:04.046Z,7.25
2018-12-22T06:21:37.341Z,7.25
2018-12-22T06:22:10.666Z,7.25
2018-12-22T06:22:43.963Z,7.31
2018-12-22T06:23:17.273Z,7.31
2018-12-22T06:23:50.579Z,7.31
2018-12-22T06:24:23.873Z,7.31
2018-12-22T06:24:57.186Z,7.31
2018-12-22T06:25:30.461Z,7.31
2018-12-22T06:26:03.785Z,7.31
2018-12-22T06:26:37.136Z,7.31
2018-12-22T06:27:10.448Z,7.31
2018-12-22T06:27:43.786Z,7.31
2018-12-22T06:28:17.102Z,7.31
2018-12-22T06:28:50.380Z,7.31
2018-12-22T06:29:23.694Z,7.31
2018-12-22T06:29:57.029Z,7.31
2018-12-22T06:30:30.394Z,7.31
2018-12-22T06:31:03.734Z,7.31
2018-12-22T06:31:37.019Z,7.31
2018-12-22T06:32:10.340Z,7.31
2018-12-22T06:32:43.647Z,7.37
2018-12-22T06:33:16.954Z,7.37
2018-12-22T06:33:50.416Z,7.37
2018-12-22T06:34:23.809Z,7.37
2018-12-22T06:34:57.133Z,7.37
2018-12-22T06:35:30.454Z,7.37
2018-12-22T06:36:03.792Z,7.44
2018-12-22T06:36:37.096Z,7.44
2018-12-22T06:37:10.404Z,7.44
2018-12-22T06:37:43.738Z,7.44
2018-12-22T06:38:17.062Z,7.44
2018-12-22T06:38:50.376Z,7.44
2018-12-22T06:39:23.728Z,7.44
2018-12-22T06:39:57.058Z,7.44
2018-12-22T06:40:30.362Z,7.50
2018-12-22T06:41:03.658Z,7.50
2018-12-22T06:41:36.982Z,7.50
2018-12-22T06:42:10.304Z,7.50
2018-12-22T06:42:43.622Z,7.50
2018-12-22T06:43:16.925Z,7.50
2018-12-22T06:43:50.479Z,7.50
2018-12-22T06:44:23.792Z,7.50
2018-12-22T06:44:57.107Z,7.50
2018-12-22T06:45:30.438Z,7.50
2018-12-22T06:46:03.799Z,7.50
2018-12-22T06:46:37.122Z,7.50
2018-12-22T06:47:10.466Z,7.50
2018-12-22T06:47:43.834Z,7.50
2018-12-22T06:48:17.168Z,7.50
2018-12-22T06:48:50.513Z,7.50
2018-12-22T06:49:23.825Z,7.50
2018-12-22T06:49:57.152Z,7.50
2018-12-22T06:50:30.492Z,7.50
2018-12-22T06:51:03.832Z,7.56
2018-12-22T06:51:37.304Z,7.56
2018-12-22T06:52:10.666Z,7.56
2018-12-22T06:52:44.012Z,7.56
2018-12-22T06:53:17.326Z,7.56
2018-12-22T06:53:50.675Z,7.56
2018-12-22T06:54:24.019Z,7.56
2018-12-22T06:54:57.310Z,7.56
2018-12-22T06:55:30.747Z,7.56
2018-12-22T06:56:04.299Z,7.56
2018-12-22T06:56:37.628Z,7.56
2018-12-22T06:57:10.948Z,7.56
2018-12-22T06:57:44.258Z,7.56
2018-12-22T06:58:17.562Z,7.56
2018-12-22T06:58:50.867Z,7.56
2018-12-22T06:59:24.188Z,7.56
2018-12-22T06:59:57.494Z,7.56
2018-12-22T07:00:30.838Z,7.56
2018-12-22T07:01:04.170Z,7.56
2018-12-22T07:01:37.478Z,7.56
2018-12-22T07:02:10.841Z,7.56
2018-12-22T07:02:44.145Z,7.56
2018-12-22T07:03:17.452Z,7.56
2018-12-22T07:03:50.750Z,7.56
2018-12-22T07:04:24.049Z,7.56
2018-12-22T07:04:57.386Z,7.56
2018-12-22T07:05:33.620Z,7.56
2018-12-22T07:06:06.927Z,7.56
2018-12-22T07:06:40.252Z,7.56
2018-12-22T07:07:13.567Z,7.56
2018-12-22T07:07:46.948Z,7.56
2018-12-22T07:08:20.372Z,7.56
2018-12-22T07:08:53.713Z,7.56
2018-12-22T07:09:27.156Z,7.56
2018-12-22T07:10:00.568Z,7.56
2018-12-22T07:10:33.912Z,7.56
2018-12-22T07:11:07.266Z,7.62
2018-12-22T07:11:40.606Z,7.62
2018-12-22T07:12:13.894Z,7.62
2018-12-22T07:12:47.204Z,7.62
2018-12-22T07:13:20.488Z,7.62
2018-12-22T07:13:53.844Z,7.62
2018-12-22T07:14:27.162Z,7.62
2018-12-22T07:15:00.534Z,7.62
2018-12-22T07:15:33.838Z,7.62
2018-12-22T07:16:07.530Z,7.69
2018-12-22T07:16:40.920Z,7.69
2018-12-22T07:17:14.260Z,7.69
2018-12-22T07:17:47.717Z,7.69
2018-12-22T07:18:22.268Z,7.69
2018-12-22T07:18:55.646Z,7.69
2018-12-22T07:19:29.048Z,7.69
2018-12-22T07:20:02.586Z,7.69
2018-12-22T07:20:35.900Z,7.69
2018-12-22T07:21:09.213Z,7.69
2018-12-22T07:21:42.675Z,7.69
2018-12-22T07:22:15.979Z,7.69
2018-12-22T07:22:49.324Z,7.69
2018-12-22T07:23:22.680Z,7.75
2018-12-22T07:23:56.026Z,7.75
2018-12-22T07:24:29.320Z,7.75
2018-12-22T07:25:02.654Z,7.75
2018-12-22T07:25:35.958Z,7.75
2018-12-22T07:26:09.298Z,7.75
2018-12-22T07:26:42.646Z,7.75